createdAt,value
2022-12-04T00:01:42.080Z,2.95
2022-12-04T00:04:12.115Z,3.70
2022-12-04T00:06:41.256Z,6.03
2022-12-04T00:09:11.067Z,3.00
2022-12-04T00:11:40.349Z,1.80
2022-12-04T00:14:09.942Z,1.70
2022-12-04T00:16:39.016Z,2.83
2022-12-04T00:19:08.183Z,3.63
2022-12-04T00:21:39.182Z,1.60
2022-12-04T00:24:08.433Z,1.40
2022-12-04T00:26:37.242Z,1.50
2022-12-04T00:29:06.772Z,1.83
2022-12-04T00:31:36.118Z,5.72
2022-12-04T00:34:07.998Z,7.32
2022-12-04T00:36:37.852Z,3.08
2022-12-04T00:39:06.971Z,2.30
2022-12-04T00:41:36.125Z,1.40
2022-12-04T00:44:05.150Z,1.98
2022-12-04T00:46:34.043Z,1.48
2022-12-04T00:49:03.483Z,1.40
2022-12-04T00:51:32.446Z,1.52
2022-12-04T00:54:01.356Z,1.63
2022-12-04T00:56:30.854Z,2.08
2022-12-04T00:59:02.473Z,1.58
2022-12-04T01:01:32.355Z,1.95
2022-12-04T01:04:01.545Z,1.75
2022-12-04T01:06:36.187Z,1.40
2022-12-04T01:09:06.821Z,1.20
2022-12-04T01:11:35.889Z,1.67
2022-12-04T01:14:04.924Z,1.77
2022-12-04T01:16:37.336Z,1.70
2022-12-04T01:19:08.314Z,4.90
2022-12-04T01:21:38.300Z,2.42
2022-12-04T01:24:07.866Z,2.13
2022-12-04T01:26:36.739Z,2.50
2022-12-04T01:29:05.857Z,1.50
2022-12-04T01:31:35.176Z,1.90
2022-12-04T01:34:08.079Z,2.22
2022-12-04T01:36:40.419Z,2.00
2022-12-04T01:39:09.512Z,1.58
2022-12-04T01:41:41.793Z,1.90
2022-12-04T01:44:12.266Z,1.90
2022-12-04T01:46:43.888Z,3.08
2022-12-04T01:49:23.333Z,3.75
2022-12-04T01:52:01.933Z,3.13
2022-12-04T01:54:35.789Z,2.10
2022-12-04T01:57:08.302Z,4.10
2022-12-04T01:59:59.548Z,3.42
2022-12-04T02:02:35.074Z,2.30
2022-12-04T02:05:06.520Z,2.67
2022-12-04T02:07:36.755Z,2.67
2022-12-04T02:10:09.489Z,3.85
2022-12-04T02:12:51.215Z,4.38
2022-12-04T02:15:46.768Z,4.07
2022-12-04T02:18:42.060Z,3.40
2022-12-04T02:21:28.674Z,2.50
2022-12-04T02:24:48.411Z,2.25
2022-12-04T02:27:41.749Z,1.80
2022-12-04T02:30:14.304Z,1.75
2022-12-04T02:32:45.448Z,2.50
2022-12-04T02:35:45.624Z,3.00
2022-12-04T02:38:38.501Z,6.25
2022-12-04T02:41:17.119Z,20.63
2022-12-04T02:43:58.454Z,20.52
2022-12-04T02:46:30.765Z,7.93
2022-12-04T02:49:03.413Z,5.13
2022-12-04T02:51:35.980Z,7.75
2022-12-04T02:54:23.424Z,3.95
2022-12-04T02:59:36.721Z,6.53
2022-12-04T03:02:13.404Z,7.07
2022-12-04T03:07:19.269Z,4.55
2022-12-04T03:10:02.085Z,3.33
2022-12-04T03:12:41.424Z,2.35
2022-12-04T03:15:23.382Z,2.53
2022-12-04T03:17:59.401Z,2.10
2022-12-04T03:20:29.769Z,2.20
2022-12-04T03:23:10.044Z,2.08
2022-12-04T03:25:57.150Z,2.38
2022-12-04T03:28:40.206Z,2.03
2022-12-04T03:31:12.107Z,3.50
2022-12-04T03:33:50.352Z,3.45
2022-12-04T03:36:40.731Z,2.88
2022-12-04T03:39:37.757Z,2.97
2022-12-04T03:42:21.564Z,2.58
2022-12-04T03:45:04.382Z,5.32
2022-12-04T03:47:43.695Z,7.43
2022-12-04T03:50:34.575Z,6.03
2022-12-04T03:53:30.215Z,5.32
2022-12-04T03:56:02.240Z,6.40
2022-12-04T03:58:37.671Z,8.10
2022-12-04T04:01:11.056Z,6.57
2022-12-04T04:03:50.573Z,8.25
2022-12-04T04:06:28.084Z,5.03
2022-12-04T04:09:02.206Z,4.57
2022-12-04T04:11:45.086Z,4.70
2022-12-04T04:15:10.945Z,5.22
2022-12-04T04:18:03.571Z,5.07
2022-12-04T04:21:17.644Z,4.93
2022-12-04T04:24:09.224Z,3.90
2022-12-04T04:26:43.964Z,3.67
2022-12-04T04:29:13.635Z,3.15
2022-12-04T04:32:02.112Z,3.35
2022-12-04T04:34:36.974Z,3.25
2022-12-04T04:37:27.507Z,2.85
2022-12-04T04:40:15.046Z,2.55
2022-12-04T04:43:08.017Z,2.60
2022-12-04T04:45:46.750Z,2.35
2022-12-04T04:48:21.495Z,2.30
2022-12-04T04:50:51.366Z,2.45
2022-12-04T04:53:27.596Z,2.72
2022-12-04T04:55:57.170Z,2.97
2022-12-04T04:58:26.415Z,2.83
2022-12-04T05:01:00.770Z,2.15
2022-12-04T05:03:30.630Z,2.20
2022-12-04T05:06:02.733Z,2.45
2022-12-04T05:08:37.705Z,3.00
2022-12-04T05:11:10.044Z,3.05
2022-12-04T05:13:44.208Z,3.42
2022-12-04T05:16:18.024Z,3.28
2022-12-04T05:19:19.435Z,2.47
2022-12-04T05:22:00.190Z,3.28
2022-12-04T05:24:37.584Z,3.60
2022-12-04T05:27:07.545Z,3.28
2022-12-04T05:29:38.817Z,3.20
2022-12-04T05:32:12.239Z,3.30
2022-12-04T05:34:49.859Z,3.40
2022-12-04T05:37:23.876Z,2.78
2022-12-04T05:40:23.342Z,3.08
2022-12-04T05:42:55.366Z,3.50
2022-12-04T05:45:24.417Z,3.05
2022-12-04T05:47:53.452Z,3.08
2022-12-04T05:50:22.499Z,3.00
2022-12-04T05:52:51.470Z,2.92
2022-12-04T05:55:20.242Z,3.60
2022-12-04T05:57:49.145Z,3.72
2022-12-04T06:00:18.906Z,3.60
2022-12-04T06:02:47.744Z,2.88
2022-12-04T06:05:16.605Z,2.20
2022-12-04T06:07:45.420Z,1.88
2022-12-04T06:10:14.423Z,2.20
2022-12-04T06:12:43.152Z,2.20
2022-12-04T06:15:12.335Z,2.60
2022-12-04T06:17:41.325Z,4.35
2022-12-04T06:20:13.389Z,3.15
2022-12-04T06:22:42.291Z,3.72
2022-12-04T06:25:11.635Z,3.90
2022-12-04T06:27:40.628Z,3.65
2022-12-04T06:30:10.180Z,3.13
2022-12-04T06:32:39.040Z,3.30
2022-12-04T06:35:08.101Z,2.63
2022-12-04T06:37:37.157Z,3.05
2022-12-04T06:40:06.604Z,2.30
2022-12-04T06:42:35.531Z,2.40
2022-12-04T06:45:04.964Z,2.08
2022-12-04T06:47:36.417Z,2.53
2022-12-04T06:50:06.273Z,1.90
2022-12-04T06:52:35.292Z,1.50
2022-12-04T06:55:04.323Z,1.33
2022-12-04T06:57:33.758Z,1.75
2022-12-04T07:00:02.599Z,1.60
2022-12-04T07:02:31.659Z,1.67
2022-12-04T07:05:00.577Z,1.67
2022-12-04T07:07:29.505Z,2.13
2022-12-04T07:09:58.479Z,2.10
2022-12-04T07:12:27.465Z,2.00
2022-12-04T07:14:56.362Z,3.22
2022-12-04T07:17:25.211Z,3.75
2022-12-04T07:19:54.329Z,4.10
2022-12-04T07:22:23.343Z,4.00
2022-12-04T07:24:52.206Z,4.03
2022-12-04T07:27:21.254Z,4.63
2022-12-04T07:29:54.000Z,4.53
2022-12-04T07:32:23.209Z,4.30
2022-12-04T07:34:52.401Z,4.68
2022-12-04T07:37:21.401Z,5.18
2022-12-04T07:39:53.896Z,5.13
2022-12-04T07:42:24.413Z,4.10
2022-12-04T07:44:53.576Z,4.30
2022-12-04T07:47:22.365Z,4.15
2022-12-04T07:49:51.262Z,3.85
2022-12-04T07:52:20.080Z,3.45
2022-12-04T07:54:49.080Z,3.65
2022-12-04T07:57:17.878Z,3.03
2022-12-04T07:59:46.802Z,3.25
2022-12-04T08:02:15.599Z,3.92
2022-12-04T08:04:44.491Z,4.38
2022-12-04T08:07:13.403Z,3.72
2022-12-04T08:09:42.344Z,4.28
2022-12-04T08:12:11.412Z,5.05
2022-12-04T08:14:40.260Z,5.00
2022-12-04T08:17:09.163Z,4.57
2022-12-04T08:19:38.098Z,4.28
2022-12-04T08:22:06.917Z,3.88
2022-12-04T08:24:36.460Z,3.00
2022-12-04T08:27:05.303Z,2.90
2022-12-04T08:29:34.563Z,3.15
2022-12-04T08:32:03.620Z,3.33
2022-12-04T08:34:32.918Z,3.58
2022-12-04T08:37:02.008Z,3.58
2022-12-04T08:39:33.634Z,4.60
2022-12-04T08:42:02.540Z,4.78
2022-12-04T08:44:31.342Z,4.10
2022-12-04T08:47:00.254Z,4.93
2022-12-04T08:49:29.771Z,3.90
2022-12-04T08:51:58.553Z,4.07
2022-12-04T08:54:30.587Z,3.30
2022-12-04T08:57:04.043Z,3.53
2022-12-04T08:59:39.195Z,3.90
2022-12-04T09:02:09.599Z,3.13
2022-12-04T09:04:38.595Z,3.63
2022-12-04T09:07:07.363Z,3.45
2022-12-04T09:09:36.634Z,3.97
2022-12-04T09:12:05.558Z,4.10
2022-12-04T09:14:37.354Z,3.85
2022-12-04T09:17:06.393Z,3.50
2022-12-04T09:19:36.386Z,3.88
2022-12-04T09:22:05.529Z,3.83
2022-12-04T09:24:34.544Z,3.70
2022-12-04T09:27:05.924Z,3.75
2022-12-04T09:29:41.029Z,3.80
2022-12-04T09:32:10.472Z,3.50
2022-12-04T09:34:39.305Z,3.30
2022-12-04T09:37:08.187Z,3.78
2022-12-04T09:39:36.966Z,2.97
2022-12-04T09:42:23.876Z,2.70
2022-12-04T09:45:23.194Z,2.92
2022-12-04T09:47:59.061Z,4.10
2022-12-04T09:50:42.125Z,2.83
2022-12-04T09:53:31.828Z,4.30
2022-12-04T09:56:07.757Z,5.18
2022-12-04T09:59:08.344Z,5.15
2022-12-04T10:01:55.062Z,3.97
2022-12-04T10:04:25.757Z,3.95
2022-12-04T10:07:11.414Z,4.78
2022-12-04T10:09:55.472Z,4.93
2022-12-04T10:12:48.056Z,4.72
2022-12-04T10:15:37.174Z,4.40
2022-12-04T10:18:24.636Z,4.28
2022-12-04T10:21:03.745Z,4.28
2022-12-04T10:23:57.144Z,4.57
2022-12-04T10:26:40.797Z,5.60
2022-12-04T10:29:17.385Z,6.55
2022-12-04T10:31:47.670Z,7.22
2022-12-04T10:34:24.574Z,6.90
2022-12-04T10:39:39.196Z,6.10
2022-12-04T10:42:20.974Z,7.90
2022-12-04T10:44:49.858Z,5.63
2022-12-04T10:47:19.331Z,7.10
2022-12-04T10:49:48.224Z,5.55
2022-12-04T10:52:17.011Z,5.25
2022-12-04T10:55:06.190Z,4.65
2022-12-04T10:57:44.495Z,4.43
2022-12-04T11:00:46.577Z,5.03
2022-12-04T11:03:28.307Z,4.75
2022-12-04T11:06:07.129Z,4.18
2022-12-04T11:08:51.049Z,4.05
2022-12-04T11:11:32.759Z,3.83
2022-12-04T11:14:23.327Z,3.67
2022-12-04T11:17:04.573Z,3.35
2022-12-04T11:19:37.081Z,3.78
2022-12-04T11:22:20.851Z,4.25
2022-12-04T11:24:57.238Z,3.78
2022-12-04T11:27:35.330Z,4.07
2022-12-04T11:30:10.943Z,3.60
2022-12-04T11:32:40.200Z,3.50
2022-12-04T11:35:18.261Z,3.65
2022-12-04T11:38:28.398Z,3.63
2022-12-04T11:40:59.181Z,3.58
2022-12-04T11:43:30.885Z,3.22
2022-12-04T11:46:02.554Z,3.65
2022-12-04T11:48:33.776Z,3.20
2022-12-04T11:51:36.202Z,3.55
2022-12-04T11:54:35.320Z,3.38
2022-12-04T11:57:16.314Z,3.03
2022-12-04T11:59:57.344Z,2.80
2022-12-04T12:02:52.137Z,2.67
2022-12-04T12:05:54.768Z,2.28
2022-12-04T12:08:51.169Z,2.60
2022-12-04T12:11:27.536Z,2.60
2022-12-04T12:14:27.182Z,3.88
2022-12-04T12:17:15.781Z,2.22
2022-12-04T12:19:53.615Z,2.50
2022-12-04T12:22:43.038Z,2.70
2022-12-04T12:25:28.015Z,3.20
2022-12-04T12:27:56.779Z,2.65
2022-12-04T12:30:30.137Z,3.00
2022-12-04T12:33:27.999Z,3.30
2022-12-04T12:38:39.834Z,2.75
2022-12-04T12:41:19.929Z,2.67
2022-12-04T12:43:56.782Z,2.35
2022-12-04T12:49:00.062Z,3.08
2022-12-04T12:51:43.968Z,2.50
2022-12-04T12:54:34.760Z,2.45
2022-12-04T12:57:18.566Z,2.75
2022-12-04T13:00:07.350Z,2.42
2022-12-04T13:03:14.912Z,3.30
2022-12-04T13:05:50.456Z,2.75
2022-12-04T13:08:43.612Z,3.00
2022-12-04T13:11:23.931Z,4.03
2022-12-04T13:13:58.889Z,3.42
2022-12-04T13:16:46.031Z,3.20
2022-12-04T13:19:46.599Z,3.00
2022-12-04T13:22:35.463Z,3.40
2022-12-04T13:25:18.552Z,2.90
2022-12-04T13:27:53.438Z,3.58
2022-12-04T13:30:24.410Z,3.22
2022-12-04T13:33:11.471Z,3.60
2022-12-04T13:36:17.708Z,3.25
2022-12-04T13:39:04.694Z,3.33
2022-12-04T13:41:37.502Z,3.28
2022-12-04T13:44:25.141Z,3.90
2022-12-04T13:47:07.310Z,3.70
2022-12-04T13:49:46.774Z,3.45
2022-12-04T13:52:38.624Z,3.22
2022-12-04T13:55:34.737Z,3.65
2022-12-04T13:58:25.614Z,3.28
2022-12-04T14:01:27.927Z,3.17
2022-12-04T14:03:58.218Z,2.95
2022-12-04T14:06:51.211Z,4.05
2022-12-04T14:09:31.813Z,3.15
2022-12-04T14:12:04.816Z,3.60
2022-12-04T14:14:54.060Z,2.90
2022-12-04T14:17:38.194Z,3.78
2022-12-04T14:20:27.103Z,3.10
2022-12-04T14:22:56.057Z,3.45
2022-12-04T14:25:35.818Z,3.40
2022-12-04T14:28:27.606Z,3.28
2022-12-04T14:31:10.292Z,3.30
2022-12-04T14:33:53.118Z,2.88
2022-12-04T14:37:00.134Z,3.47
2022-12-04T14:39:50.238Z,3.60
2022-12-04T14:42:26.112Z,5.13
2022-12-04T14:45:00.221Z,3.87
2022-12-04T14:48:11.217Z,3.50
2022-12-04T14:50:50.111Z,3.80
2022-12-04T14:53:50.430Z,3.72
2022-12-04T14:56:42.587Z,3.53
2022-12-04T14:59:47.990Z,3.10
2022-12-04T15:02:22.206Z,3.42
2022-12-04T15:04:52.113Z,3.53
2022-12-04T15:07:24.517Z,3.22
2022-12-04T15:10:13.592Z,3.33
2022-12-04T15:12:49.076Z,3.17
2022-12-04T15:15:28.618Z,3.30
2022-12-04T15:18:26.932Z,3.25
2022-12-04T15:21:00.394Z,3.15
2022-12-04T15:23:31.150Z,2.60
2022-12-04T15:26:02.811Z,2.30
2022-12-04T15:28:58.038Z,2.90
2022-12-04T15:31:35.425Z,3.20
2022-12-04T15:34:09.207Z,3.22
2022-12-04T15:36:45.301Z,3.40
2022-12-04T15:39:20.971Z,3.03
2022-12-04T15:41:50.615Z,3.03
2022-12-04T15:44:34.098Z,3.28
2022-12-04T15:47:16.294Z,3.33
2022-12-04T15:49:45.158Z,3.15
2022-12-04T15:52:19.268Z,3.33
2022-12-04T15:54:59.156Z,3.50
2022-12-04T15:57:36.973Z,3.35
2022-12-04T16:00:09.186Z,2.90
2022-12-04T16:02:47.075Z,2.95
2022-12-04T16:05:22.010Z,3.10
2022-12-04T16:08:15.359Z,3.28
2022-12-04T16:10:44.292Z,3.15
2022-12-04T16:13:29.151Z,3.67
2022-12-04T16:16:02.733Z,2.95
2022-12-04T16:18:31.719Z,3.42
2022-12-04T16:21:01.580Z,2.97
2022-12-04T16:23:30.540Z,2.67
2022-12-04T16:25:59.314Z,2.95
2022-12-04T16:28:28.158Z,3.08
2022-12-04T16:30:57.042Z,2.95
2022-12-04T16:33:26.065Z,2.58
2022-12-04T16:35:54.788Z,2.65
2022-12-04T16:38:23.708Z,2.78
2022-12-04T16:40:52.593Z,2.80
2022-12-04T16:43:21.407Z,2.83
2022-12-04T16:45:55.837Z,2.70
2022-12-04T16:48:24.626Z,2.65
2022-12-04T16:50:53.352Z,2.40
2022-12-04T16:53:23.900Z,3.08
2022-12-04T16:55:53.845Z,3.08
2022-12-04T16:58:22.613Z,3.47
2022-12-04T17:00:55.088Z,4.35
2022-12-04T17:03:33.517Z,4.03
2022-12-04T17:06:02.858Z,2.97
2022-12-04T17:08:34.689Z,3.10
2022-12-04T17:11:03.676Z,2.92
2022-12-04T17:13:32.509Z,2.88
2022-12-04T17:16:01.461Z,2.53
2022-12-04T17:18:30.342Z,3.15
2022-12-04T17:20:59.573Z,2.72
2022-12-04T17:23:28.689Z,2.60
2022-12-04T17:26:02.702Z,2.63
2022-12-04T17:28:32.154Z,2.85
2022-12-04T17:31:03.360Z,2.72
2022-12-04T17:33:32.434Z,2.90
2022-12-04T17:36:01.300Z,2.90
2022-12-04T17:38:30.490Z,3.13
2022-12-04T17:41:03.205Z,3.05
2022-12-04T17:43:33.446Z,2.85
2022-12-04T17:46:02.747Z,3.08
2022-12-04T17:48:31.602Z,3.30
2022-12-04T17:51:13.039Z,2.50
2022-12-04T17:53:42.329Z,2.78
2022-12-04T17:56:18.149Z,3.10
2022-12-04T17:59:00.017Z,2.80
2022-12-04T18:01:30.876Z,2.75
2022-12-04T18:04:04.103Z,2.92
2022-12-04T18:06:44.178Z,3.10
2022-12-04T18:09:18.151Z,3.13
2022-12-04T18:12:02.248Z,3.28
2022-12-04T18:14:32.956Z,2.88
2022-12-04T18:17:05.939Z,2.97
2022-12-04T18:19:35.139Z,3.28
2022-12-04T18:22:04.271Z,2.53
2022-12-04T18:24:34.557Z,3.33
2022-12-04T18:27:05.264Z,3.08
2022-12-04T18:29:34.232Z,3.05
2022-12-04T18:32:03.229Z,2.83
2022-12-04T18:34:32.289Z,3.10
2022-12-04T18:37:04.860Z,2.50
2022-12-04T18:39:43.632Z,3.00
2022-12-04T18:42:12.691Z,2.65
2022-12-04T18:44:41.919Z,2.55
2022-12-04T18:47:10.932Z,2.75
2022-12-04T18:49:46.348Z,2.95
2022-12-04T18:52:15.580Z,2.80
2022-12-04T18:55:16.102Z,2.50
2022-12-04T18:57:47.948Z,2.90
2022-12-04T19:00:20.858Z,2.70
2022-12-04T19:02:50.323Z,2.78
2022-12-04T19:05:19.648Z,2.60
2022-12-04T19:07:50.652Z,3.15
2022-12-04T19:10:23.250Z,2.35
2022-12-04T19:12:53.599Z,3.10
2022-12-04T19:15:23.223Z,2.78
2022-12-04T19:17:52.732Z,2.90
2022-12-04T19:20:22.182Z,2.72
2022-12-04T19:22:51.109Z,2.90
2022-12-04T19:25:20.224Z,2.50
2022-12-04T19:27:55.528Z,2.50
2022-12-04T19:30:25.685Z,2.67
2022-12-04T19:32:57.403Z,2.80
2022-12-04T19:35:26.586Z,3.80
2022-12-04T19:37:56.185Z,3.45
2022-12-04T19:40:24.988Z,2.78
2022-12-04T19:42:56.895Z,2.92
2022-12-04T19:45:28.548Z,2.67
2022-12-04T19:47:57.505Z,2.20
2022-12-04T19:50:26.790Z,2.60
2022-12-04T19:52:55.638Z,2.80
2022-12-04T19:55:24.552Z,2.85
2022-12-04T19:57:55.693Z,2.28
2022-12-04T20:00:25.104Z,2.65
2022-12-04T20:02:54.214Z,2.17
2022-12-04T20:05:23.030Z,2.83
2022-12-04T20:07:53.038Z,2.30
2022-12-04T20:10:24.428Z,2.10
2022-12-04T20:12:53.335Z,2.10
2022-12-04T20:15:22.098Z,2.40
2022-12-04T20:17:52.776Z,2.25
2022-12-04T20:20:21.594Z,1.80
2022-12-04T20:22:53.846Z,2.22
2022-12-04T20:25:23.629Z,2.08
2022-12-04T20:27:52.712Z,1.80
2022-12-04T20:30:21.879Z,2.10
2022-12-04T20:32:50.814Z,2.38
2022-12-04T20:35:19.669Z,1.98
2022-12-04T20:37:51.546Z,2.20
2022-12-04T20:40:22.208Z,2.15
2022-12-04T20:42:52.084Z,2.38
2022-12-04T20:45:21.189Z,3.33
2022-12-04T20:47:50.789Z,2.92
2022-12-04T20:50:19.859Z,3.22
2022-12-04T20:52:48.667Z,2.55
2022-12-04T20:55:17.655Z,3.00
2022-12-04T20:57:46.525Z,2.72
2022-12-04T21:00:17.998Z,2.40
2022-12-04T21:02:46.900Z,2.08
2022-12-04T21:05:15.704Z,2.20
2022-12-04T21:07:44.648Z,1.98
2022-12-04T21:10:13.542Z,1.80
2022-12-04T21:13:00.777Z,2.00
2022-12-04T21:15:47.929Z,1.85
2022-12-04T21:18:17.200Z,1.50
2022-12-04T21:20:45.936Z,1.77
2022-12-04T21:23:14.836Z,2.05
2022-12-04T21:25:43.848Z,1.67
2022-12-04T21:28:12.746Z,2.10
2022-12-04T21:30:41.606Z,2.83
2022-12-04T21:33:10.535Z,2.30
2022-12-04T21:35:41.000Z,2.38
2022-12-04T21:38:09.918Z,2.05
2022-12-04T21:40:42.397Z,2.10
2022-12-04T21:43:11.578Z,2.05
2022-12-04T21:45:40.429Z,2.35
2022-12-04T21:48:09.383Z,2.00
2022-12-04T21:50:38.376Z,3.40
2022-12-04T21:53:07.244Z,2.72
2022-12-04T21:55:36.008Z,3.05
2022-12-04T21:58:04.894Z,3.72
2022-12-04T22:00:33.663Z,3.40
2022-12-04T22:03:02.588Z,3.60
2022-12-04T22:05:33.680Z,3.15
2022-12-04T22:08:02.608Z,2.78
2022-12-04T22:10:31.461Z,3.38
2022-12-04T22:13:00.299Z,3.00
2022-12-04T22:15:29.065Z,3.22
2022-12-04T22:17:57.925Z,2.60
2022-12-04T22:20:27.978Z,2.83
2022-12-04T22:22:57.113Z,3.17
2022-12-04T22:25:25.910Z,3.17
2022-12-04T22:27:55.089Z,2.65
2022-12-04T22:30:25.113Z,2.72
2022-12-04T22:32:54.989Z,3.10
2022-12-04T22:35:23.785Z,3.00
2022-12-04T22:37:52.584Z,3.40
2022-12-04T22:40:21.422Z,3.42
2022-12-04T22:42:50.170Z,3.60
2022-12-04T22:45:19.480Z,5.10
2022-12-04T22:47:48.227Z,5.10
2022-12-04T22:50:17.080Z,4.82
2022-12-04T22:52:45.931Z,5.10
2022-12-04T22:55:14.759Z,7.20
2022-12-04T22:57:43.592Z,8.40
2022-12-04T23:00:13.257Z,9.00
2022-12-04T23:02:42.103Z,5.28
2022-12-04T23:05:10.892Z,5.82
2022-12-04T23:07:40.209Z,4.07
2022-12-04T23:10:09.822Z,4.05
2022-12-04T23:12:38.796Z,3.72
2022-12-04T23:15:10.958Z,3.38
2022-12-04T23:17:39.874Z,3.42
2022-12-04T23:20:09.722Z,3.45
2022-12-04T23:22:38.565Z,3.58
2022-12-04T23:25:08.058Z,3.75
2022-12-04T23:27:36.814Z,3.95
2022-12-04T23:30:07.304Z,4.20
2022-12-04T23:32:36.463Z,4.00
2022-12-04T23:35:05.508Z,4.60
2022-12-04T23:37:34.630Z,3.33
2022-12-04T23:40:03.617Z,4.05
2022-12-04T23:42:34.469Z,4.25
2022-12-04T23:45:03.338Z,4.68
2022-12-04T23:47:32.453Z,4.18
2022-12-04T23:50:01.513Z,3.75
2022-12-04T23:52:31.968Z,3.85
2022-12-04T23:55:00.775Z,3.30
2022-12-04T23:57:32.646Z,3.42
